createdAt,value
2023-02-06T00:01:11.093Z,1.00
2023-02-06T00:03:37.828Z,1.00
2023-02-06T00:06:04.725Z,1.00
2023-02-06T00:08:31.518Z,1.10
2023-02-06T00:10:58.296Z,1.10
2023-02-06T00:13:25.027Z,1.00
2023-02-06T00:15:51.734Z,1.00
2023-02-06T00:18:18.499Z,1.00
2023-02-06T00:20:45.238Z,1.00
2023-02-06T00:23:11.960Z,0.90
2023-02-06T00:25:38.658Z,0.90
2023-02-06T00:28:05.732Z,0.90
2023-02-06T00:30:32.623Z,0.90
2023-02-06T00:32:59.300Z,0.90
2023-02-06T00:35:26.000Z,0.90
2023-02-06T00:37:52.690Z,0.90
2023-02-06T00:40:19.484Z,0.90
2023-02-06T00:42:46.133Z,0.90
2023-02-06T00:45:12.924Z,0.90
2023-02-06T00:47:39.692Z,1.00
2023-02-06T00:50:06.584Z,0.90
2023-02-06T00:52:33.301Z,0.90
2023-02-06T00:54:59.961Z,0.80
2023-02-06T00:57:26.620Z,0.80
2023-02-06T00:59:54.328Z,0.80
2023-02-06T01:02:21.036Z,0.80
2023-02-06T01:04:47.698Z,0.80
2023-02-06T01:07:14.434Z,0.70
2023-02-06T01:09:41.488Z,0.70
2023-02-06T01:12:08.182Z,0.70
2023-02-06T01:14:34.888Z,0.70
2023-02-06T01:17:01.539Z,0.70
2023-02-06T01:19:28.206Z,0.70
2023-02-06T01:21:54.893Z,0.70
2023-02-06T01:24:21.543Z,0.70
2023-02-06T01:26:48.172Z,0.60
2023-02-06T01:29:14.886Z,0.60
2023-02-06T01:31:41.657Z,0.60
2023-02-06T01:34:10.328Z,0.60
2023-02-06T01:36:36.988Z,0.60
2023-02-06T01:39:05.089Z,0.50
2023-02-06T01:41:31.877Z,0.50
2023-02-06T01:44:15.729Z,0.50
2023-02-06T01:46:47.278Z,0.50
2023-02-06T01:49:18.230Z,0.50
2023-02-06T01:51:45.993Z,0.50
2023-02-06T01:54:13.968Z,0.60
2023-02-06T01:56:47.712Z,0.60
2023-02-06T01:59:14.586Z,0.60
2023-02-06T02:01:42.014Z,0.60
2023-02-06T02:04:14.247Z,0.60
2023-02-06T02:06:41.504Z,0.60
2023-02-06T02:09:08.536Z,0.60
2023-02-06T02:11:38.437Z,0.60
2023-02-06T02:14:08.654Z,0.60
2023-02-06T02:16:52.098Z,0.70
2023-02-06T02:19:56.530Z,0.60
2023-02-06T02:22:46.223Z,0.60
2023-02-06T02:25:15.854Z,0.70
2023-02-06T02:27:57.903Z,0.70
2023-02-06T02:30:58.041Z,0.70
2023-02-06T02:34:00.641Z,0.70
2023-02-06T02:36:37.581Z,0.70
2023-02-06T02:39:21.683Z,0.60
2023-02-06T02:41:56.543Z,0.50
2023-02-06T02:44:33.348Z,0.50
2023-02-06T02:47:05.036Z,0.50
2023-02-06T02:49:34.528Z,0.50
2023-02-06T02:52:02.474Z,0.40
2023-02-06T02:54:29.159Z,0.40
2023-02-06T02:57:01.164Z,0.40
2023-02-06T02:59:37.916Z,0.40
2023-02-06T03:02:14.620Z,0.40
2023-02-06T03:04:49.774Z,0.40
2023-02-06T03:07:44.141Z,0.40
2023-02-06T03:10:20.469Z,0.30
2023-02-06T03:13:03.256Z,0.30
2023-02-06T03:15:46.994Z,0.30
2023-02-06T03:18:23.918Z,0.20
2023-02-06T03:20:52.168Z,0.30
2023-02-06T03:23:30.541Z,0.30
2023-02-06T03:26:01.847Z,0.30
2023-02-06T03:28:33.900Z,0.30
2023-02-06T03:31:05.304Z,0.30
2023-02-06T03:33:45.338Z,0.40
2023-02-06T03:36:17.021Z,0.40
2023-02-06T03:38:46.882Z,0.40
2023-02-06T03:41:15.339Z,0.50
2023-02-06T03:43:45.485Z,0.50
2023-02-06T03:46:14.930Z,0.50
2023-02-06T03:48:49.577Z,0.50
2023-02-06T03:51:24.175Z,0.60
2023-02-06T03:53:55.536Z,0.60
2023-02-06T03:56:29.785Z,0.60
2023-02-06T03:58:56.470Z,0.60
2023-02-06T04:01:23.918Z,0.70
2023-02-06T04:03:51.254Z,0.70
2023-02-06T04:06:18.351Z,0.70
2023-02-06T04:08:45.022Z,0.70
2023-02-06T04:11:11.793Z,0.60
2023-02-06T04:13:38.497Z,0.70
2023-02-06T04:16:05.394Z,0.70
2023-02-06T04:18:32.101Z,0.70
2023-02-06T04:21:06.396Z,0.70
2023-02-06T04:23:33.247Z,0.70
2023-02-06T04:26:00.131Z,0.70
2023-02-06T04:28:27.018Z,0.80
2023-02-06T04:30:54.080Z,0.80
2023-02-06T04:33:20.979Z,0.80
2023-02-06T04:35:48.781Z,0.90
2023-02-06T04:38:15.707Z,0.90
2023-02-06T04:40:42.973Z,0.90
2023-02-06T04:43:09.767Z,0.90
2023-02-06T04:45:36.640Z,0.90
2023-02-06T04:48:03.612Z,0.90
2023-02-06T04:50:31.795Z,0.90
2023-02-06T04:52:58.692Z,0.80
2023-02-06T04:55:25.356Z,0.80
2023-02-06T04:57:52.112Z,0.80
2023-02-06T05:00:18.860Z,0.80
2023-02-06T05:02:45.584Z,0.80
2023-02-06T05:05:14.370Z,0.80
2023-02-06T05:07:41.019Z,0.80
2023-02-06T05:10:09.273Z,0.80
2023-02-06T05:12:36.378Z,0.80
2023-02-06T05:15:03.753Z,0.70
2023-02-06T05:17:30.444Z,0.70
2023-02-06T05:19:58.380Z,0.80
2023-02-06T05:22:25.767Z,0.80
2023-02-06T05:24:52.444Z,0.90
2023-02-06T05:27:19.318Z,0.90
2023-02-06T05:29:45.995Z,0.90
2023-02-06T05:32:12.622Z,1.00
2023-02-06T05:34:39.269Z,1.00
2023-02-06T05:37:06.020Z,0.90
2023-02-06T05:39:32.665Z,1.00
2023-02-06T05:41:59.304Z,0.90
2023-02-06T05:44:26.079Z,0.90
2023-02-06T05:46:52.789Z,0.90
2023-02-06T05:49:19.472Z,1.00
2023-02-06T05:51:46.206Z,1.00
2023-02-06T05:54:13.148Z,0.90
2023-02-06T05:56:39.830Z,0.90
2023-02-06T05:59:06.571Z,0.90
2023-02-06T06:01:33.247Z,0.90
2023-02-06T06:04:00.275Z,1.00
2023-02-06T06:06:26.918Z,1.00
2023-02-06T06:08:53.648Z,1.00
2023-02-06T06:11:20.774Z,1.00
2023-02-06T06:13:47.411Z,1.00
2023-02-06T06:16:14.151Z,1.00
2023-02-06T06:18:40.849Z,1.10
2023-02-06T06:21:07.523Z,1.10
2023-02-06T06:23:34.193Z,1.10
2023-02-06T06:26:00.842Z,1.00
2023-02-06T06:28:27.570Z,1.00
2023-02-06T06:31:02.632Z,1.00
2023-02-06T06:33:29.520Z,1.00
2023-02-06T06:35:56.269Z,0.90
2023-02-06T06:38:23.511Z,1.00
2023-02-06T06:40:50.359Z,0.90
2023-02-06T06:43:17.082Z,0.90
2023-02-06T06:45:43.848Z,0.90
2023-02-06T06:48:10.534Z,0.80
2023-02-06T06:50:37.652Z,0.80
2023-02-06T06:53:04.399Z,0.80
2023-02-06T06:55:31.384Z,0.70
2023-02-06T06:57:58.138Z,0.70
2023-02-06T07:00:24.973Z,0.80
2023-02-06T07:02:51.741Z,0.80
2023-02-06T07:05:18.542Z,0.80
2023-02-06T07:07:45.188Z,0.80
2023-02-06T07:10:12.541Z,0.80
2023-02-06T07:12:39.500Z,0.90
2023-02-06T07:15:07.216Z,0.90
2023-02-06T07:17:33.946Z,0.90
2023-02-06T07:20:00.611Z,0.90
2023-02-06T07:22:27.372Z,0.90
2023-02-06T07:24:54.577Z,1.00
2023-02-06T07:27:21.303Z,1.00
2023-02-06T07:29:47.943Z,1.00
2023-02-06T07:32:14.601Z,1.00
2023-02-06T07:34:41.266Z,1.10
2023-02-06T07:37:07.963Z,1.00
2023-02-06T07:39:35.164Z,1.10
2023-02-06T07:42:01.859Z,1.10
2023-02-06T07:44:28.493Z,1.10
2023-02-06T07:46:55.211Z,1.20
2023-02-06T07:49:21.830Z,1.30
2023-02-06T07:51:48.571Z,1.40
2023-02-06T07:54:15.527Z,1.60
2023-02-06T07:56:42.685Z,1.70
2023-02-06T07:59:09.623Z,1.80
2023-02-06T08:01:36.667Z,1.80
2023-02-06T08:04:03.979Z,1.90
2023-02-06T08:06:30.783Z,1.90
2023-02-06T08:08:57.724Z,1.80
2023-02-06T08:11:27.644Z,1.80
2023-02-06T08:13:54.406Z,1.80
2023-02-06T08:16:22.816Z,1.80
2023-02-06T08:18:49.943Z,1.90
2023-02-06T08:21:22.093Z,1.90
2023-02-06T08:23:58.185Z,1.90
2023-02-06T08:26:26.935Z,2.00
2023-02-06T08:28:54.968Z,2.10
2023-02-06T08:31:26.161Z,2.10
2023-02-06T08:33:53.177Z,2.20
2023-02-06T08:36:21.240Z,2.20
2023-02-06T08:38:48.685Z,2.30
2023-02-06T08:41:18.276Z,2.30
2023-02-06T08:43:49.115Z,2.50
2023-02-06T08:46:17.147Z,2.50
2023-02-06T08:48:44.332Z,2.60
2023-02-06T08:51:12.486Z,2.60
2023-02-06T08:53:39.323Z,2.60
2023-02-06T08:56:08.691Z,2.60
2023-02-06T08:58:36.337Z,2.60
2023-02-06T09:01:13.584Z,2.60
2023-02-06T09:03:41.736Z,2.60
2023-02-06T09:06:10.365Z,2.60
2023-02-06T09:08:38.346Z,2.60
2023-02-06T09:11:07.646Z,2.60
2023-02-06T09:13:34.730Z,2.60
2023-02-06T09:16:01.997Z,2.60
2023-02-06T09:18:28.717Z,2.60
2023-02-06T09:21:11.412Z,2.60
2023-02-06T09:23:39.654Z,2.70
2023-02-06T09:26:06.598Z,2.70
2023-02-06T09:28:34.004Z,2.80
2023-02-06T09:31:00.905Z,2.80
2023-02-06T09:33:27.780Z,2.80
2023-02-06T09:36:05.957Z,2.80
2023-02-06T09:38:32.685Z,2.90
2023-02-06T09:41:02.074Z,2.80
2023-02-06T09:43:31.723Z,2.90
2023-02-06T09:46:02.389Z,2.80
2023-02-06T09:48:32.693Z,2.90
2023-02-06T09:51:05.164Z,2.90
2023-02-06T09:53:40.687Z,3.00
2023-02-06T09:56:19.261Z,3.00
2023-02-06T09:58:54.935Z,3.00
2023-02-06T10:01:39.488Z,3.10
2023-02-06T10:04:18.289Z,3.10
2023-02-06T10:06:50.834Z,3.20
2023-02-06T10:09:29.334Z,3.30
2023-02-06T10:11:58.366Z,3.40
2023-02-06T10:14:45.113Z,3.40
2023-02-06T10:17:35.932Z,3.50
2023-02-06T10:20:13.582Z,3.60
2023-02-06T10:23:02.174Z,3.60
2023-02-06T10:25:33.294Z,3.60
2023-02-06T10:28:07.996Z,3.60
2023-02-06T10:30:55.464Z,3.70
2023-02-06T10:33:35.009Z,3.80
2023-02-06T10:36:33.863Z,3.80
2023-02-06T10:39:32.975Z,3.80
2023-02-06T10:42:22.772Z,3.90
2023-02-06T10:45:20.249Z,3.90
2023-02-06T10:48:09.654Z,4.00
2023-02-06T10:50:54.987Z,4.10
2023-02-06T10:53:47.147Z,4.20
2023-02-06T10:56:16.988Z,4.30
2023-02-06T10:58:52.860Z,4.50
2023-02-06T11:01:26.380Z,4.60
2023-02-06T11:04:05.907Z,4.60
2023-02-06T11:06:32.969Z,4.60
2023-02-06T11:08:59.738Z,4.70
2023-02-06T11:11:32.324Z,4.80
2023-02-06T11:14:13.054Z,4.80
2023-02-06T11:16:41.690Z,4.90
2023-02-06T11:19:31.980Z,4.90
2023-02-06T11:22:04.838Z,5.00
2023-02-06T11:24:31.840Z,5.00
2023-02-06T11:27:01.362Z,4.90
2023-02-06T11:29:39.318Z,4.90
2023-02-06T11:32:08.067Z,4.90
2023-02-06T11:34:44.144Z,4.80
2023-02-06T11:37:31.923Z,4.80
2023-02-06T11:40:17.130Z,4.80
2023-02-06T11:43:12.980Z,4.70
2023-02-06T11:45:40.911Z,4.70
2023-02-06T11:48:38.188Z,4.70
2023-02-06T11:51:05.754Z,4.60
2023-02-06T11:53:32.676Z,4.60
2023-02-06T11:56:05.600Z,4.60
2023-02-06T11:58:32.883Z,4.40
2023-02-06T12:01:15.905Z,4.40
2023-02-06T12:03:51.658Z,4.50
2023-02-06T12:06:30.527Z,4.60
2023-02-06T12:09:00.784Z,4.50
2023-02-06T12:11:56.519Z,4.40
2023-02-06T12:14:37.072Z,4.40
2023-02-06T12:17:09.820Z,4.40
2023-02-06T12:19:50.351Z,4.40
2023-02-06T12:22:25.371Z,4.40
2023-02-06T12:24:57.116Z,4.40
2023-02-06T12:27:38.842Z,4.40
2023-02-06T12:30:30.089Z,4.40
2023-02-06T12:33:17.110Z,4.40
2023-02-06T12:35:55.935Z,4.40
2023-02-06T12:38:58.835Z,4.40
2023-02-06T12:41:49.919Z,4.40
2023-02-06T12:44:19.434Z,4.40
2023-02-06T12:46:50.610Z,4.40
2023-02-06T12:49:30.002Z,4.40
2023-02-06T12:52:04.790Z,4.40
2023-02-06T12:54:46.211Z,4.40
2023-02-06T12:57:26.529Z,4.40
2023-02-06T13:00:31.099Z,4.40
2023-02-06T13:03:14.620Z,4.50
2023-02-06T13:05:47.314Z,4.60
2023-02-06T13:08:26.973Z,4.60
2023-02-06T13:11:22.765Z,4.60
2023-02-06T13:13:49.683Z,4.70
2023-02-06T13:16:16.493Z,4.60
2023-02-06T13:18:45.425Z,4.60
2023-02-06T13:21:23.385Z,4.60
2023-02-06T13:24:17.772Z,4.60
2023-02-06T13:26:53.314Z,4.50
2023-02-06T13:29:33.305Z,4.40
2023-02-06T13:32:15.433Z,4.50
2023-02-06T13:34:43.949Z,4.40
2023-02-06T13:37:39.475Z,4.50
2023-02-06T13:40:24.249Z,4.50
2023-02-06T13:43:09.058Z,4.50
2023-02-06T13:45:41.774Z,4.50
2023-02-06T13:48:29.233Z,4.50
2023-02-06T13:51:16.771Z,4.50
2023-02-06T13:54:01.940Z,4.50
2023-02-06T13:56:52.354Z,4.60
2023-02-06T13:59:27.906Z,4.70
2023-02-06T14:01:55.715Z,4.70
2023-02-06T14:04:27.071Z,4.70
2023-02-06T14:07:02.147Z,4.70
2023-02-06T14:10:02.542Z,4.70
2023-02-06T14:12:55.811Z,4.60
2023-02-06T14:15:28.993Z,4.50
2023-02-06T14:18:03.312Z,4.50
2023-02-06T14:20:49.909Z,4.50
2023-02-06T14:23:35.543Z,4.50
2023-02-06T14:26:40.027Z,4.50
2023-02-06T14:29:18.626Z,4.50
2023-02-06T14:32:13.785Z,4.40
2023-02-06T14:35:01.579Z,4.50
2023-02-06T14:37:43.231Z,4.60
2023-02-06T14:40:33.487Z,4.60
2023-02-06T14:43:04.102Z,4.60
2023-02-06T14:45:42.097Z,4.60
2023-02-06T14:48:26.288Z,4.50
2023-02-06T14:50:56.622Z,4.50
2023-02-06T14:53:28.641Z,4.40
2023-02-06T14:56:16.829Z,4.40
2023-02-06T14:58:46.321Z,4.30
2023-02-06T15:01:18.977Z,4.30
2023-02-06T15:03:48.086Z,4.20
2023-02-06T15:06:37.643Z,4.20
2023-02-06T15:09:05.499Z,4.20
2023-02-06T15:11:33.064Z,4.10
2023-02-06T15:14:05.930Z,4.10
2023-02-06T15:16:46.328Z,4.00
2023-02-06T15:19:19.023Z,4.00
2023-02-06T15:21:45.917Z,4.00
2023-02-06T15:24:44.360Z,4.00
2023-02-06T15:27:30.692Z,3.90
2023-02-06T15:29:58.330Z,3.90
2023-02-06T15:32:27.817Z,3.90
2023-02-06T15:34:54.672Z,3.80
2023-02-06T15:37:25.698Z,3.80
2023-02-06T15:39:53.446Z,3.80
2023-02-06T15:42:22.193Z,3.70
2023-02-06T15:44:49.804Z,3.70
2023-02-06T15:47:19.202Z,3.70
2023-02-06T15:49:49.633Z,3.70
2023-02-06T15:52:36.241Z,3.60
2023-02-06T15:55:03.074Z,3.60
2023-02-06T15:57:38.427Z,3.60
2023-02-06T16:00:09.597Z,3.60
2023-02-06T16:02:39.680Z,3.50
2023-02-06T16:05:08.124Z,3.50
2023-02-06T16:07:36.031Z,3.40
2023-02-06T16:10:08.774Z,3.40
2023-02-06T16:12:43.278Z,3.40
2023-02-06T16:15:30.195Z,3.40
2023-02-06T16:17:59.917Z,3.30
2023-02-06T16:20:32.210Z,3.30
2023-02-06T16:23:19.844Z,3.30
2023-02-06T16:25:49.988Z,3.20
2023-02-06T16:28:22.986Z,3.20
2023-02-06T16:31:00.136Z,3.20
2023-02-06T16:33:40.355Z,3.20
2023-02-06T16:36:07.768Z,3.20
2023-02-06T16:38:34.521Z,3.10
2023-02-06T16:41:01.237Z,3.10
2023-02-06T16:43:28.874Z,3.10
2023-02-06T16:45:55.753Z,3.10
2023-02-06T16:48:22.414Z,3.10
2023-02-06T16:50:49.378Z,3.10
2023-02-06T16:53:22.700Z,3.10
2023-02-06T16:55:50.502Z,3.10
2023-02-06T16:58:23.095Z,3.10
2023-02-06T17:00:49.924Z,3.10
2023-02-06T17:03:17.696Z,3.10
2023-02-06T17:05:45.747Z,3.10
2023-02-06T17:08:21.711Z,3.10
2023-02-06T17:10:48.835Z,3.20
2023-02-06T17:13:17.550Z,3.10
2023-02-06T17:15:47.055Z,3.20
2023-02-06T17:18:16.473Z,3.20
2023-02-06T17:20:46.372Z,3.20
2023-02-06T17:23:14.203Z,3.20
2023-02-06T17:25:43.366Z,3.10
2023-02-06T17:28:14.090Z,3.10
2023-02-06T17:30:41.293Z,3.10
2023-02-06T17:33:08.443Z,3.10
2023-02-06T17:35:38.784Z,3.10
2023-02-06T17:38:07.065Z,3.10
2023-02-06T17:40:36.073Z,3.10
2023-02-06T17:43:04.614Z,3.10
2023-02-06T17:45:31.748Z,3.10
2023-02-06T17:47:58.636Z,3.10
2023-02-06T17:50:27.317Z,3.00
2023-02-06T17:52:55.670Z,3.00
2023-02-06T17:55:23.750Z,3.00
2023-02-06T17:57:51.071Z,3.00
2023-02-06T18:00:22.136Z,3.10
2023-02-06T18:02:49.818Z,3.10
2023-02-06T18:05:16.594Z,3.10
2023-02-06T18:07:43.329Z,3.10
2023-02-06T18:10:11.183Z,3.10
2023-02-06T18:12:38.600Z,3.10
2023-02-06T18:15:05.809Z,3.10
2023-02-06T18:17:32.534Z,3.10
2023-02-06T18:19:59.270Z,3.10
2023-02-06T18:22:26.388Z,3.10
2023-02-06T18:24:53.145Z,3.10
2023-02-06T18:27:21.319Z,3.20
2023-02-06T18:29:50.838Z,3.20
2023-02-06T18:32:18.994Z,3.20
2023-02-06T18:34:46.450Z,3.10
2023-02-06T18:37:13.371Z,3.10
2023-02-06T18:39:40.075Z,3.10
2023-02-06T18:42:25.519Z,3.10
2023-02-06T18:44:52.269Z,3.10
2023-02-06T18:47:19.705Z,3.10
2023-02-06T18:49:46.781Z,3.10
2023-02-06T18:52:13.576Z,3.10
2023-02-06T18:54:40.354Z,3.10
2023-02-06T18:57:07.185Z,3.10
2023-02-06T18:59:34.794Z,3.10
2023-02-06T19:02:02.151Z,3.10
2023-02-06T19:04:29.001Z,3.10
2023-02-06T19:06:55.761Z,3.10
2023-02-06T19:09:22.493Z,3.10
2023-02-06T19:11:49.459Z,3.10
2023-02-06T19:14:17.816Z,3.10
2023-02-06T19:16:47.274Z,3.20
2023-02-06T19:19:14.309Z,3.20
2023-02-06T19:21:41.643Z,3.10
2023-02-06T19:24:11.157Z,3.10
2023-02-06T19:26:37.846Z,3.00
2023-02-06T19:29:04.564Z,2.90
2023-02-06T19:31:32.279Z,2.90
2023-02-06T19:34:00.717Z,3.00
2023-02-06T19:36:29.268Z,3.00
2023-02-06T19:38:58.511Z,3.00
2023-02-06T19:41:27.741Z,3.00
2023-02-06T19:43:55.815Z,2.90
2023-02-06T19:46:25.080Z,3.00
2023-02-06T19:48:52.646Z,3.00
2023-02-06T19:51:29.046Z,3.00
2023-02-06T19:53:56.877Z,3.00
2023-02-06T19:56:34.536Z,3.00
2023-02-06T19:59:03.609Z,3.00
2023-02-06T20:01:30.865Z,3.00
2023-02-06T20:03:59.400Z,3.00
2023-02-06T20:06:27.220Z,3.10
2023-02-06T20:08:54.153Z,3.00
2023-02-06T20:11:22.021Z,3.10
2023-02-06T20:13:52.027Z,3.10
2023-02-06T20:16:23.899Z,3.10
2023-02-06T20:18:50.816Z,3.10
2023-02-06T20:21:20.021Z,3.10
2023-02-06T20:23:46.906Z,3.20
2023-02-06T20:26:13.582Z,3.10
2023-02-06T20:28:40.280Z,3.10
2023-02-06T20:31:10.754Z,3.10
2023-02-06T20:33:38.449Z,3.10
2023-02-06T20:36:09.986Z,3.20
2023-02-06T20:38:37.168Z,3.20
2023-02-06T20:41:07.173Z,3.20
2023-02-06T20:43:35.800Z,3.20
2023-02-06T20:46:06.858Z,3.20
2023-02-06T20:48:36.859Z,3.20
2023-02-06T20:51:05.512Z,3.20
2023-02-06T20:53:32.295Z,3.20
2023-02-06T20:55:59.237Z,3.20
2023-02-06T20:58:25.989Z,3.20
2023-02-06T21:00:53.287Z,3.20
2023-02-06T21:03:20.205Z,3.20
2023-02-06T21:05:58.415Z,3.20
2023-02-06T21:08:26.634Z,3.20
2023-02-06T21:10:53.415Z,3.20
2023-02-06T21:13:20.205Z,3.10
2023-02-06T21:15:56.464Z,3.10
2023-02-06T21:18:25.233Z,3.10
2023-02-06T21:20:53.149Z,3.10
2023-02-06T21:23:19.830Z,3.10
2023-02-06T21:25:54.092Z,3.00
2023-02-06T21:28:21.540Z,3.00
2023-02-06T21:30:49.407Z,3.00
2023-02-06T21:33:16.629Z,2.90
2023-02-06T21:35:52.599Z,2.90
2023-02-06T21:38:19.781Z,2.90
2023-02-06T21:40:46.808Z,2.80
2023-02-06T21:43:15.195Z,2.70
2023-02-06T21:45:42.697Z,2.70
2023-02-06T21:48:09.836Z,2.70
2023-02-06T21:50:41.089Z,2.60
2023-02-06T21:53:10.913Z,2.60
2023-02-06T21:55:44.788Z,2.50
2023-02-06T21:58:15.817Z,2.50
2023-02-06T22:00:44.702Z,2.40
2023-02-06T22:03:12.165Z,2.40
2023-02-06T22:05:39.390Z,2.30
2023-02-06T22:08:06.630Z,2.30
2023-02-06T22:10:36.933Z,2.20
2023-02-06T22:13:05.352Z,2.20
2023-02-06T22:15:32.949Z,2.10
2023-02-06T22:17:59.841Z,2.10
2023-02-06T22:20:26.962Z,2.10
2023-02-06T22:22:54.889Z,2.00
2023-02-06T22:25:21.734Z,2.00
2023-02-06T22:27:48.587Z,2.00
2023-02-06T22:30:15.691Z,1.90
2023-02-06T22:32:42.334Z,1.90
2023-02-06T22:35:09.100Z,1.90
2023-02-06T22:37:36.098Z,1.90
2023-02-06T22:40:02.845Z,1.80
2023-02-06T22:42:29.888Z,1.80
2023-02-06T22:44:56.665Z,1.80
2023-02-06T22:47:23.350Z,1.80
2023-02-06T22:49:52.432Z,1.80
2023-02-06T22:52:38.389Z,1.80
2023-02-06T22:55:05.780Z,1.80
2023-02-06T22:57:35.215Z,1.80
2023-02-06T23:00:02.041Z,1.80
2023-02-06T23:02:28.767Z,1.80
2023-02-06T23:04:55.445Z,1.70
2023-02-06T23:07:22.162Z,1.70
2023-02-06T23:09:48.837Z,1.70
2023-02-06T23:12:16.210Z,1.70
2023-02-06T23:14:43.162Z,1.70
2023-02-06T23:17:10.700Z,1.60
2023-02-06T23:19:39.180Z,1.60
2023-02-06T23:22:05.977Z,1.60
2023-02-06T23:24:32.764Z,1.50
2023-02-06T23:26:59.508Z,1.60
2023-02-06T23:29:26.432Z,1.50
2023-02-06T23:31:53.652Z,1.50
2023-02-06T23:34:23.697Z,1.50
2023-02-06T23:36:51.832Z,1.50
2023-02-06T23:39:18.590Z,1.50
2023-02-06T23:41:45.330Z,1.50
2023-02-06T23:44:12.123Z,1.50
2023-02-06T23:46:40.323Z,1.40
2023-02-06T23:49:08.042Z,1.30
2023-02-06T23:51:36.541Z,1.30
2023-02-06T23:54:04.452Z,1.30
2023-02-06T23:56:31.975Z,1.30
2023-02-06T23:59:00.042Z,1.30
